Time;durP1;ratioP1;P1;durP2;ratioP2;P2;SDS_P1;SDS_P2;PMS_P1;PMS_P2;Temp;Humidity;BMP_temperature;BMP_pressure;BME280_temperature;BME280_humidity;BME280_pressure;Samples;Min_cycle;Max_cycle;Signal;HPM_P1;HPM_P2
2021/05/27 12:15:14;;;;;;;8.88;3.38;;;;;;;;;;5095029;23;20062;-86
2021/05/27 12:17:44;;;;;;;8.10;3.10;;;;;;;;;;4939747;29;20082;-88
2021/05/27 12:23:32;;;;;;;8.90;3.10;;;;;;;;;;4929634;29;20416;-89
2021/05/27 12:25:58;;;;;;;8.32;3.30;;;;;;;;;;4927244;29;20028;-88
2021/05/27 12:28:26;;;;;;;7.63;2.75;;;;;;;;;;4929594;29;20089;-89
2021/05/27 12:30:52;;;;;;;7.30;3.10;;;;;;;;;;4930906;29;20024;-89
2021/05/27 12:46:46;;;;;;;8.20;2.85;;;;;;;;;;4920968;29;20578;-89
2021/05/27 12:49:12;;;;;;;6.53;2.75;;;;;;;;;;4927571;29;20023;-89
2021/05/27 12:51:40;;;;;;;9.85;3.15;;;;;;;;;;4931758;29;20024;-89
2021/05/27 12:54:06;;;;;;;5.70;2.92;;;;;;;;;;4926565;29;20031;-89
2021/05/27 12:56:34;;;;;;;5.57;3.00;;;;;;;;;;4932174;29;20078;-89
2021/05/27 12:59:03;;;;;;;7.78;2.83;;;;;;;;;;4931716;29;20047;-89
2021/05/27 13:01:49;;;;;;;5.22;2.85;;;;;;;;;;4933154;29;20027;-90
2021/05/27 13:04:18;;;;;;;7.63;3.00;;;;;;;;;;4933896;29;20032;-90
2021/05/27 13:06:44;;;;;;;7.78;2.60;;;;;;;;;;4933499;29;20513;-90
2021/05/27 13:09:15;;;;;;;6.95;3.05;;;;;;;;;;4935156;29;20023;-91
2021/05/27 13:11:42;;;;;;;7.18;3.10;;;;;;;;;;4933530;29;20106;-90
2021/05/27 13:14:16;;;;;;;4.68;2.70;;;;;;;;;;4931260;29;20047;-90
2021/05/27 13:16:52;;;;;;;6.47;2.88;;;;;;;;;;4934189;29;20050;-89
2021/05/27 13:19:27;;;;;;;5.30;3.03;;;;;;;;;;4932879;29;20038;-90
2021/05/27 13:21:54;;;;;;;9.15;2.90;;;;;;;;;;4932376;29;20073;-90
2021/05/27 13:24:28;;;;;;;4.72;2.53;;;;;;;;;;4931931;29;20114;-90
2021/05/27 13:27:44;;;;;;;4.55;2.42;;;;;;;;;;4933128;29;20106;-91
2021/05/27 13:30:00;;;;;;;6.45;2.70;;;;;;;;;;4928225;29;20063;-91
2021/05/27 13:32:37;;;;;;;9.13;3.40;;;;;;;;;;4931336;29;20539;-89
2021/05/27 13:35:17;;;;;;;7.60;4.18;;;;;;;;;;4933231;29;20031;-90
2021/05/27 13:37:47;;;;;;;5.28;2.97;;;;;;;;;;4934185;29;20024;-90
2021/05/27 13:40:19;;;;;;;5.10;2.67;;;;;;;;;;4934456;29;20551;-89
2021/05/27 13:42:45;;;;;;;6.22;2.97;;;;;;;;;;4934180;29;20035;-89
2021/05/27 13:45:19;;;;;;;4.72;2.70;;;;;;;;;;4933593;29;20027;-90
2021/05/27 13:47:55;;;;;;;5.32;3.42;;;;;;;;;;4932235;29;20144;-90
2021/05/27 13:50:26;;;;;;;5.68;2.70;;;;;;;;;;4932783;29;20118;-90
2021/05/27 13:53:12;;;;;;;6.88;3.22;;;;;;;;;;4932116;29;20024;-90
2021/05/27 13:55:51;;;;;;;7.20;3.20;;;;;;;;;;4930632;29;20046;-90
2021/05/27 13:58:17;;;;;;;7.60;2.38;;;;;;;;;;4933449;29;20043;-91
2021/05/27 14:00:42;;;;;;;7.32;3.00;;;;;;;;;;4926342;29;20527;-90
2021/05/27 14:03:08;;;;;;;4.43;2.70;;;;;;;;;;4933972;29;20032;-91
2021/05/27 14:05:34;;;;;;;7.38;2.88;;;;;;;;;;4932736;29;20503;-91
2021/05/27 14:08:00;;;;;;;6.78;2.60;;;;;;;;;;4933024;29;20039;-91
2021/05/27 14:10:25;;;;;;;4.00;2.42;;;;;;;;;;4933544;29;20039;-91
2021/05/27 14:12:51;;;;;;;5.50;2.53;;;;;;;;;;4934055;29;20095;-91
2021/05/27 14:15:17;;;;;;;5.28;2.65;;;;;;;;;;4936154;29;20040;-92
2021/05/27 14:17:43;;;;;;;6.70;2.80;;;;;;;;;;4937187;29;20028;-92
2021/05/27 14:20:10;;;;;;;3.92;2.22;;;;;;;;;;4936446;29;20559;-92
2021/05/27 14:22:36;;;;;;;6.70;2.60;;;;;;;;;;4937892;29;20032;-92
2021/05/27 14:25:03;;;;;;;5.95;2.45;;;;;;;;;;4937205;29;20086;-92
2021/05/27 14:27:29;;;;;;;6.15;2.47;;;;;;;;;;4936469;28;20066;-91
2021/05/27 14:29:54;;;;;;;4.38;2.35;;;;;;;;;;4940001;29;20031;-90
2021/05/27 14:32:20;;;;;;;7.45;2.25;;;;;;;;;;4938738;29;20034;-93
2021/05/27 14:34:46;;;;;;;5.57;2.13;;;;;;;;;;4937061;29;20126;-93
2021/05/27 14:37:11;;;;;;;7.82;2.47;;;;;;;;;;4938108;29;20090;-92
2021/05/27 14:39:37;;;;;;;7.05;2.20;;;;;;;;;;4935957;29;20031;-94
2021/05/27 14:42:02;;;;;;;4.38;2.10;;;;;;;;;;4936545;29;20448;-92
2021/05/27 14:44:28;;;;;;;4.45;2.20;;;;;;;;;;4938456;29;20043;-93
2021/05/27 14:46:54;;;;;;;3.58;1.90;;;;;;;;;;4936751;29;20376;-92
2021/05/27 14:49:19;;;;;;;5.20;2.08;;;;;;;;;;4936131;29;20056;-92
2021/05/27 14:51:44;;;;;;;4.60;2.17;;;;;;;;;;4937988;29;20059;-91
2021/05/27 14:54:11;;;;;;;5.25;2.25;;;;;;;;;;4935243;29;20028;-92
2021/05/27 14:56:36;;;;;;;4.10;1.92;;;;;;;;;;4935109;29;20091;-92
2021/05/27 14:59:02;;;;;;;6.07;2.28;;;;;;;;;;4936085;29;20492;-93
2021/05/27 15:01:28;;;;;;;4.90;1.90;;;;;;;;;;4937652;29;20495;-92
2021/05/27 15:03:53;;;;;;;2.47;1.52;;;;;;;;;;4936449;29;20059;-92
2021/05/27 15:06:20;;;;;;;3.38;1.50;;;;;;;;;;4936330;29;20023;-89
2021/05/27 15:08:46;;;;;;;3.70;1.80;;;;;;;;;;4936833;29;20055;-89
2021/05/27 15:11:11;;;;;;;4.38;1.50;;;;;;;;;;4933526;29;20448;-89
2021/05/27 15:13:37;;;;;;;4.05;1.75;;;;;;;;;;4935640;29;20495;-90
2021/05/27 15:16:02;;;;;;;10.95;1.83;;;;;;;;;;4935664;29;20063;-88
2021/05/27 15:18:34;;;;;;;3.80;1.50;;;;;;;;;;4935375;29;20038;-89
2021/05/27 15:21:01;;;;;;;1.67;1.25;;;;;;;;;;4935416;29;20064;-88
2021/05/27 15:23:27;;;;;;;3.80;1.58;;;;;;;;;;4933860;29;20040;-89
2021/05/27 15:25:52;;;;;;;3.50;1.60;;;;;;;;;;4930497;29;20035;-89
2021/05/27 15:28:18;;;;;;;2.40;1.60;;;;;;;;;;4933441;29;20023;-89
2021/05/27 15:30:44;;;;;;;7.03;1.30;;;;;;;;;;4936832;29;20055;-89
2021/05/27 15:33:10;;;;;;;3.13;1.52;;;;;;;;;;4936552;29;20027;-90
2021/05/27 15:35:35;;;;;;;5.28;1.70;;;;;;;;;;4935081;29;20032;-90
2021/05/27 15:38:00;;;;;;;2.03;1.50;;;;;;;;;;4933617;29;20083;-90
2021/05/27 15:40:27;;;;;;;2.05;1.30;;;;;;;;;;4930343;29;20806;-90
2021/05/27 15:42:54;;;;;;;2.13;1.20;;;;;;;;;;4931005;29;20031;-89
2021/05/27 15:45:20;;;;;;;1.90;1.10;;;;;;;;;;4928324;29;20040;-90
2021/05/27 15:47:46;;;;;;;4.05;1.48;;;;;;;;;;4934553;28;20037;-89
2021/05/27 15:50:13;;;;;;;2.63;1.52;;;;;;;;;;4935261;29;20067;-89
2021/05/27 15:52:39;;;;;;;3.95;1.30;;;;;;;;;;4926774;29;20032;-88
2021/05/27 15:55:07;;;;;;;3.25;1.30;;;;;;;;;;4927174;29;20184;-89
2021/05/27 15:57:32;;;;;;;2.50;1.42;;;;;;;;;;4933074;29;20571;-89
2021/05/27 15:59:58;;;;;;;2.85;1.40;;;;;;;;;;4934661;29;20055;-89
2021/05/27 16:02:28;;;;;;;6.75;1.50;;;;;;;;;;4934347;29;20396;-89
2021/05/27 16:04:54;;;;;;;3.25;1.38;;;;;;;;;;4934435;29;20102;-89
2021/05/27 16:07:21;;;;;;;2.95;1.23;;;;;;;;;;4935296;29;20050;-89
2021/05/27 16:09:47;;;;;;;2.75;1.55;;;;;;;;;;4933913;29;20062;-89
2021/05/27 16:12:13;;;;;;;4.13;1.30;;;;;;;;;;4934219;29;20055;-89
2021/05/27 16:14:39;;;;;;;1.65;1.30;;;;;;;;;;4933506;29;20043;-88
2021/05/27 16:17:05;;;;;;;2.38;1.08;;;;;;;;;;4934146;29;20102;-88
2021/05/27 16:19:31;;;;;;;2.28;1.08;;;;;;;;;;4936483;28;20063;-87
2021/05/27 16:21:57;;;;;;;1.55;1.17;;;;;;;;;;4934153;29;20047;-88
2021/05/27 16:24:23;;;;;;;4.38;1.30;;;;;;;;;;4935371;29;20043;-88
2021/05/27 16:26:49;;;;;;;2.50;1.10;;;;;;;;;;4933207;29;20399;-88
2021/05/27 16:29:14;;;;;;;3.20;1.13;;;;;;;;;;4932524;29;20032;-88
2021/05/27 16:31:40;;;;;;;2.08;1.00;;;;;;;;;;4933784;29;20024;-88
2021/05/27 16:34:10;;;;;;;2.55;1.00;;;;;;;;;;4934453;29;20035;-89
2021/05/27 16:39:19;;;;;;;3.15;1.08;;;;;;;;;;4935983;29;20512;-87
2021/05/27 16:41:45;;;;;;;2.08;1.00;;;;;;;;;;4931755;29;20114;-88
2021/05/27 16:44:10;;;;;;;2.95;0.90;;;;;;;;;;4935383;29;20043;-88
2021/05/27 16:46:37;;;;;;;2.47;1.52;;;;;;;;;;4932767;29;20027;-88
2021/05/27 16:49:04;;;;;;;1.88;0.90;;;;;;;;;;4933424;28;20059;-86
2021/05/27 16:51:30;;;;;;;2.22;1.15;;;;;;;;;;4935086;29;20032;-88
2021/05/27 16:53:56;;;;;;;2.47;1.00;;;;;;;;;;4934637;29;20396;-88
2021/05/27 16:56:22;;;;;;;2.75;1.00;;;;;;;;;;4933783;29;20484;-88
2021/05/27 16:58:47;;;;;;;1.33;1.13;;;;;;;;;;4933420;28;20035;-88
2021/05/27 17:01:13;;;;;;;2.35;1.10;;;;;;;;;;4933501;29;20031;-88
2021/05/27 17:03:38;;;;;;;3.35;1.20;;;;;;;;;;4935227;29;20035;-88
2021/05/27 17:06:04;;;;;;;1.23;1.00;;;;;;;;;;4933506;29;20038;-87
2021/05/27 17:08:29;;;;;;;2.58;1.23;;;;;;;;;;4934115;29;20038;-87
2021/05/27 17:10:55;;;;;;;2.88;1.27;;;;;;;;;;4932952;29;20031;-87
2021/05/27 17:13:23;;;;;;;1.20;1.10;;;;;;;;;;4931324;29;20031;-88
2021/05/27 17:15:48;;;;;;;1.75;1.10;;;;;;;;;;4929117;29;20040;-87
2021/05/27 17:18:13;;;;;;;2.45;1.10;;;;;;;;;;4928291;29;20109;-90
2021/05/27 17:20:39;;;;;;;1.00;0.82;;;;;;;;;;4931178;29;20020;-85
2021/05/27 17:23:05;;;;;;;2.15;1.00;;;;;;;;;;4931978;29;20042;-85
2021/05/27 17:25:31;;;;;;;10.65;6.55;;;;;;;;;;4933412;29;20499;-86
2021/05/27 17:27:56;;;;;;;1.85;1.13;;;;;;;;;;4932976;29;20028;-86
2021/05/27 17:30:23;;;;;;;1.38;0.90;;;;;;;;;;4920750;29;20067;-86
2021/05/27 17:32:48;;;;;;;1.20;0.95;;;;;;;;;;4932664;29;20028;-86
2021/05/27 17:35:14;;;;;;;2.63;1.10;;;;;;;;;;4934482;29;20039;-86
2021/05/27 17:37:42;;;;;;;4.47;1.08;;;;;;;;;;4934923;29;20136;-86
2021/05/27 17:40:10;;;;;;;1.48;1.20;;;;;;;;;;4932889;29;20020;-86
2021/05/27 17:42:36;;;;;;;2.33;1.20;;;;;;;;;;4932953;29;20106;-86
2021/05/27 17:45:03;;;;;;;1.63;1.10;;;;;;;;;;4920703;29;20509;-86
2021/05/27 17:47:29;;;;;;;1.33;0.98;;;;;;;;;;4931171;29;20680;-87
2021/05/27 17:49:55;;;;;;;1.50;0.70;;;;;;;;;;4932190;29;20510;-85
2021/05/27 17:52:20;;;;;;;1.20;0.90;;;;;;;;;;4934406;29;20027;-84
2021/05/27 17:54:47;;;;;;;2.08;0.73;;;;;;;;;;4933763;29;20605;-84
2021/05/27 17:57:13;;;;;;;12.43;1.00;;;;;;;;;;4932442;29;20031;-85
2021/05/27 17:59:50;;;;;;;5.45;1.08;;;;;;;;;;4934298;29;20020;-84
2021/05/27 18:02:18;;;;;;;14.98;1.70;;;;;;;;;;4930985;29;20032;-86
2021/05/27 18:04:44;;;;;;;1.10;0.63;;;;;;;;;;4933615;29;20043;-85
2021/05/27 18:07:09;;;;;;;9.57;1.70;;;;;;;;;;4931962;29;20392;-85
2021/05/27 18:09:35;;;;;;;6.20;1.08;;;;;;;;;;4933701;29;20131;-85
2021/05/27 18:12:01;;;;;;;3.83;1.00;;;;;;;;;;4933835;29;20087;-85
2021/05/27 18:14:27;;;;;;;4.68;1.20;;;;;;;;;;4932373;29;20066;-86
2021/05/27 18:16:55;;;;;;;12.82;1.90;;;;;;;;;;4932355;29;20114;-86
2021/05/27 18:19:20;;;;;;;11.77;1.85;;;;;;;;;;4932002;29;20023;-86
2021/05/27 18:21:46;;;;;;;9.02;1.40;;;;;;;;;;4933918;29;20555;-86
2021/05/27 18:24:13;;;;;;;10.57;1.30;;;;;;;;;;4931891;29;20032;-86
2021/05/27 18:26:39;;;;;;;5.53;0.82;;;;;;;;;;4932237;28;20055;-85
2021/05/27 18:29:05;;;;;;;3.03;0.90;;;;;;;;;;4934159;29;20058;-85
2021/05/27 18:31:34;;;;;;;0.93;0.70;;;;;;;;;;4933022;29;20123;-87
2021/05/27 18:34:00;;;;;;;0.80;0.70;;;;;;;;;;4934777;29;20039;-87
2021/05/27 18:36:26;;;;;;;2.30;0.82;;;;;;;;;;4932861;29;20039;-87
2021/05/27 18:38:51;;;;;;;1.85;0.50;;;;;;;;;;4932087;29;20042;-87
2021/05/27 18:41:17;;;;;;;1.65;0.70;;;;;;;;;;4932236;29;20028;-87
2021/05/27 18:43:42;;;;;;;1.98;0.70;;;;;;;;;;4930717;29;20039;-86
2021/05/27 18:46:08;;;;;;;1.98;0.90;;;;;;;;;;4934346;29;20039;-88
2021/05/27 18:48:33;;;;;;;2.20;0.93;;;;;;;;;;4933411;29;20031;-87
2021/05/27 18:50:59;;;;;;;5.60;1.00;;;;;;;;;;4932695;29;20505;-88
2021/05/27 18:53:26;;;;;;;2.08;0.63;;;;;;;;;;4932470;29;20035;-87
2021/05/27 18:55:51;;;;;;;1.25;0.90;;;;;;;;;;4933203;29;20115;-88
2021/05/27 18:58:17;;;;;;;1.23;0.80;;;;;;;;;;4934571;29;20119;-87
2021/05/27 19:00:42;;;;;;;0.82;0.70;;;;;;;;;;4936368;29;20031;-87
2021/05/27 19:03:08;;;;;;;2.88;1.20;;;;;;;;;;4937121;29;20043;-88
2021/05/27 19:05:34;;;;;;;1.10;0.93;;;;;;;;;;4936767;29;20046;-88
2021/05/27 19:08:02;;;;;;;2.17;1.10;;;;;;;;;;4933152;29;20031;-88
2021/05/27 19:10:27;;;;;;;2.40;0.90;;;;;;;;;;4934846;29;20034;-89
2021/05/27 19:12:53;;;;;;;3.60;0.98;;;;;;;;;;4935884;29;20118;-88
2021/05/27 19:15:19;;;;;;;2.25;1.05;;;;;;;;;;4935191;29;20516;-88
2021/05/27 19:17:44;;;;;;;1.05;0.82;;;;;;;;;;4936126;29;20047;-88
2021/05/27 19:20:16;;;;;;;0.80;0.73;;;;;;;;;;4935948;29;20488;-88
2021/05/27 19:22:42;;;;;;;1.45;0.80;;;;;;;;;;4931884;29;20107;-89
2021/05/27 19:25:10;;;;;;;1.80;0.73;;;;;;;;;;4935200;29;20114;-88
2021/05/27 19:27:36;;;;;;;1.90;0.70;;;;;;;;;;4935100;29;20035;-88
2021/05/27 19:30:03;;;;;;;9.63;0.90;;;;;;;;;;4935934;29;20031;-87
2021/05/27 19:32:29;;;;;;;1.23;0.85;;;;;;;;;;4935403;29;20039;-87
2021/05/27 19:34:54;;;;;;;1.48;0.90;;;;;;;;;;4936656;29;20566;-87
2021/05/27 19:37:20;;;;;;;1.10;0.70;;;;;;;;;;4937163;29;20070;-86
2021/05/27 19:39:45;;;;;;;0.65;0.65;;;;;;;;;;4935553;29;20070;-86
2021/05/27 19:42:11;;;;;;;0.70;0.70;;;;;;;;;;4935764;29;20484;-86
2021/05/27 19:44:37;;;;;;;1.80;0.80;;;;;;;;;;4936271;29;20167;-84
2021/05/27 19:47:03;;;;;;;0.75;0.60;;;;;;;;;;4937150;29;20031;-84
2021/05/27 19:49:29;;;;;;;1.17;0.70;;;;;;;;;;4936599;29;20444;-87
2021/05/27 19:51:55;;;;;;;1.23;0.80;;;;;;;;;;4937392;29;20031;-84
2021/05/27 19:54:21;;;;;;;2.15;0.85;;;;;;;;;;4938225;29;20488;-83
2021/05/27 19:56:46;;;;;;;2.83;0.80;;;;;;;;;;4937935;28;20036;-83
2021/05/27 19:59:13;;;;;;;1.27;0.75;;;;;;;;;;4944285;29;20019;-82
2021/05/27 20:01:38;;;;;;;1.77;0.85;;;;;;;;;;4947339;29;20130;-82
2021/05/27 20:04:42;;;;;;;2.40;0.85;;;;;;;;;;4954009;29;20032;-82
2021/05/27 20:08:27;;;;;;;0.80;0.68;;;;;;;;;;4951786;29;20016;-82
2021/05/27 20:13:53;;;;;;;1.85;1.00;;;;;;;;;;5166763;23;20066;-83
2021/05/27 20:17:05;;;;;;;3.20;1.17;;;;;;;;;;4966922;28;20042;-83
2021/05/27 20:28:32;;;;;;;;;;;;;;;;;;4959107;29;20075;-81
2021/05/27 20:31:32;;;;;;;2.88;1.10;;;;;;;;;;4992885;28;19906;-82
2021/05/27 20:35:13;;;;;;;;;;;;;;;;;;;;;
2021/05/27 20:38:26;;;;;;;1.35;1.00;;;;;;;;;;4959171;28;20062;-82
2021/05/27 20:53:56;;;;;;;1.95;1.30;;;;;;;;;;5405324;23;20269;-84
2021/05/27 20:56:22;;;;;;;1.13;1.00;;;;;;;;;;4952558;29;20041;-83
2021/05/27 20:58:48;;;;;;;1.10;1.00;;;;;;;;;;4945356;29;20020;-83
2021/05/27 21:01:14;;;;;;;1.98;1.05;;;;;;;;;;4955596;29;20012;-83
2021/05/27 21:03:39;;;;;;;1.65;1.20;;;;;;;;;;4946706;29;20022;-84
2021/05/27 21:06:05;;;;;;;3.65;1.10;;;;;;;;;;4952968;29;20107;-83
2021/05/27 21:08:32;;;;;;;1.30;1.00;;;;;;;;;;4957144;29;20012;-83
2021/05/27 21:10:58;;;;;;;2.05;1.10;;;;;;;;;;4949367;29;20024;-83
2021/05/27 21:13:24;;;;;;;1.60;1.13;;;;;;;;;;4954850;29;20020;-83
2021/05/27 21:15:49;;;;;;;2.17;1.00;;;;;;;;;;4952125;29;20020;-83
2021/05/27 21:18:21;;;;;;;1.90;1.05;;;;;;;;;;4950376;29;20027;-84
2021/05/27 21:20:47;;;;;;;1.50;0.88;;;;;;;;;;4950218;29;20028;-83
2021/05/27 21:23:13;;;;;;;1.60;1.00;;;;;;;;;;4945053;29;20036;-83
2021/05/27 21:25:40;;;;;;;1.52;0.93;;;;;;;;;;4952278;29;20044;-83
2021/05/27 21:28:06;;;;;;;0.80;0.80;;;;;;;;;;4943454;29;20024;-83
2021/05/27 21:30:33;;;;;;;1.23;1.00;;;;;;;;;;4942552;29;20027;-83
2021/05/27 21:32:58;;;;;;;1.95;1.00;;;;;;;;;;4934375;29;20088;-83
2021/05/27 21:35:24;;;;;;;1.50;1.10;;;;;;;;;;4954352;29;20027;-83
2021/05/27 21:37:49;;;;;;;1.73;1.10;;;;;;;;;;4943865;29;20050;-83
2021/05/27 21:40:17;;;;;;;2.88;1.00;;;;;;;;;;4943707;29;20032;-83
2021/05/27 21:42:44;;;;;;;1.33;1.00;;;;;;;;;;4945898;29;20493;-83
2021/05/27 21:45:13;;;;;;;1.45;0.90;;;;;;;;;;4938552;29;20103;-83
2021/05/27 21:47:40;;;;;;;2.58;0.90;;;;;;;;;;4939320;29;20023;-83
2021/05/27 21:50:06;;;;;;;1.48;0.80;;;;;;;;;;4954555;29;20051;-83
2021/05/27 21:52:31;;;;;;;1.00;0.90;;;;;;;;;;4953337;29;20034;-83
2021/05/27 21:54:57;;;;;;;1.27;0.93;;;;;;;;;;4945603;29;20023;-83
2021/05/27 21:57:22;;;;;;;1.73;1.00;;;;;;;;;;4936632;29;20032;-82
2021/05/27 21:59:49;;;;;;;1.20;1.00;;;;;;;;;;4933586;29;20028;-83
2021/05/27 22:02:15;;;;;;;0.75;0.75;;;;;;;;;;4948240;29;20023;-83
2021/05/27 22:04:40;;;;;;;1.52;0.85;;;;;;;;;;4946155;29;20059;-83
2021/05/27 22:07:07;;;;;;;1.65;0.95;;;;;;;;;;4948234;29;20039;-83
2021/05/27 22:09:32;;;;;;;1.45;1.10;;;;;;;;;;4948519;29;20119;-83
2021/05/27 22:11:58;;;;;;;1.20;0.85;;;;;;;;;;4947037;29;20035;-83
2021/05/27 22:14:24;;;;;;;1.00;0.90;;;;;;;;;;4945910;29;20043;-82
2021/05/27 22:16:50;;;;;;;1.10;1.00;;;;;;;;;;4948663;29;20042;-83
2021/05/27 22:19:15;;;;;;;1.83;0.98;;;;;;;;;;4949533;29;20036;-83
2021/05/27 22:21:41;;;;;;;1.38;0.93;;;;;;;;;;4948335;29;20052;-83
2021/05/27 22:24:07;;;;;;;1.48;0.90;;;;;;;;;;4948299;29;20403;-83
2021/05/27 22:26:34;;;;;;;2.05;0.80;;;;;;;;;;4948271;29;20081;-82
2021/05/27 22:28:59;;;;;;;2.42;1.00;;;;;;;;;;4948500;29;20039;-83
2021/05/27 22:31:25;;;;;;;1.27;1.08;;;;;;;;;;4948597;29;20030;-83
2021/05/27 22:33:50;;;;;;;1.23;0.90;;;;;;;;;;4949238;29;20055;-83
2021/05/27 22:36:17;;;;;;;2.35;0.85;;;;;;;;;;4950721;29;20042;-83
2021/05/27 22:38:42;;;;;;;2.00;1.05;;;;;;;;;;4951345;29;20031;-83
2021/05/27 22:41:10;;;;;;;1.38;0.80;;;;;;;;;;4951068;29;20047;-83
2021/05/27 22:43:36;;;;;;;2.20;1.10;;;;;;;;;;4938097;29;20058;-83
2021/05/27 22:46:23;;;;;;;1.63;0.90;;;;;;;;;;4954751;29;20039;-83
2021/05/27 22:48:49;;;;;;;2.15;0.90;;;;;;;;;;4955430;28;20035;-84
2021/05/27 22:51:15;;;;;;;1.63;0.90;;;;;;;;;;4953362;29;20032;-83
2021/05/27 22:53:40;;;;;;;1.08;0.98;;;;;;;;;;4950825;29;20048;-83
2021/05/27 22:56:06;;;;;;;0.95;0.90;;;;;;;;;;4950356;29;20031;-83
2021/05/27 22:58:31;;;;;;;1.48;1.10;;;;;;;;;;4950214;29;20023;-83
2021/05/27 23:00:57;;;;;;;1.50;1.00;;;;;;;;;;4949992;29;20051;-83
2021/05/27 23:03:22;;;;;;;2.78;1.20;;;;;;;;;;4950609;29;20096;-83
2021/05/27 23:05:48;;;;;;;1.55;1.02;;;;;;;;;;4940378;29;20035;-83
2021/05/27 23:08:13;;;;;;;1.85;1.15;;;;;;;;;;4934705;29;20032;-83
2021/05/27 23:10:39;;;;;;;3.05;1.25;;;;;;;;;;4934266;29;20048;-83
2021/05/27 23:13:04;;;;;;;1.45;1.30;;;;;;;;;;4936190;29;20176;-83
2021/05/27 23:15:30;;;;;;;1.90;1.10;;;;;;;;;;4936243;29;20032;-83
2021/05/27 23:17:56;;;;;;;1.88;1.25;;;;;;;;;;4936149;29;20036;-83
2021/05/27 23:20:22;;;;;;;2.70;1.30;;;;;;;;;;4943234;29;20028;-83
2021/05/27 23:22:48;;;;;;;3.10;1.40;;;;;;;;;;4955033;29;20072;-83
2021/05/27 23:25:14;;;;;;;2.47;1.50;;;;;;;;;;4939325;29;20652;-83
2021/05/27 23:27:39;;;;;;;4.57;1.50;;;;;;;;;;4935902;29;20032;-83
2021/05/27 23:30:07;;;;;;;4.05;1.70;;;;;;;;;;4936189;29;20028;-83
2021/05/27 23:32:33;;;;;;;2.50;1.45;;;;;;;;;;4933830;29;20098;-82
2021/05/27 23:34:58;;;;;;;2.95;1.35;;;;;;;;;;4932430;29;20035;-83
2021/05/27 23:37:24;;;;;;;2.58;1.38;;;;;;;;;;4943090;29;20031;-83
2021/05/27 23:39:50;;;;;;;4.72;1.48;;;;;;;;;;4951684;29;20032;-83
2021/05/27 23:42:15;;;;;;;2.15;1.25;;;;;;;;;;4950270;29;20457;-83
2021/05/27 23:44:40;;;;;;;2.80;1.10;;;;;;;;;;4952841;29;20024;-83
2021/05/27 23:47:06;;;;;;;1.30;1.20;;;;;;;;;;4949460;29;20031;-83
2021/05/27 23:49:32;;;;;;;2.08;1.30;;;;;;;;;;4949833;29;20031;-83
2021/05/27 23:52:00;;;;;;;2.00;1.13;;;;;;;;;;4949505;29;20027;-83
2021/05/27 23:54:25;;;;;;;2.80;1.38;;;;;;;;;;4951042;29;20047;-83
2021/05/27 23:56:51;;;;;;;2.28;1.40;;;;;;;;;;4952747;29;20032;-83
2021/05/27 23:59:16;;;;;;;2.25;1.55;;;;;;;;;;4941968;29;20055;-83
